Time;durP1;ratioP1;P1;durP2;ratioP2;P2;SDS_P1;SDS_P2;PMS_P1;PMS_P2;Temp;Humidity;BMP_temperature;BMP_pressure;BME280_temperature;BME280_humidity;BME280_pressure;Samples;Min_cycle;Max_cycle;Signal;HPM_P1;HPM_P2
2023/04/22 00:01:23;;;;;;;7.00;5.15;;;;;;;6.49;94.48;100719.06;4973425;28;20038;-71
2023/04/22 00:03:49;;;;;;;7.68;5.70;;;;;;;6.45;95.25;100717.47;4983452;28;20394;-71
2023/04/22 00:06:14;;;;;;;20.90;6.10;;;;;;;6.41;95.75;100719.47;4969282;28;20778;-71
2023/04/22 00:08:40;;;;;;;7.15;5.32;;;;;;;6.36;94.56;100714.34;4970185;28;20058;-71
2023/04/22 00:11:05;;;;;;;19.33;7.80;;;;;;;6.35;97.04;100717.13;4969791;28;20034;-71
2023/04/22 00:13:31;;;;;;;11.93;6.78;;;;;;;6.25;97.31;100715.91;4969825;28;20050;-71
2023/04/22 00:15:56;;;;;;;9.23;5.80;;;;;;;6.16;96.78;100714.63;4968751;28;20066;-71
2023/04/22 00:18:22;;;;;;;5.57;4.93;;;;;;;6.16;94.92;100702.94;4970421;28;20027;-71
2023/04/22 00:20:47;;;;;;;6.15;4.68;;;;;;;6.19;94.63;100698.22;4968130;28;20053;-71
2023/04/22 00:23:12;;;;;;;5.60;4.35;;;;;;;6.19;94.44;100705.44;4970201;28;20089;-71
2023/04/22 00:25:39;;;;;;;6.80;5.45;;;;;;;6.17;93.98;100708.25;4970072;28;20502;-71
2023/04/22 00:28:05;;;;;;;7.47;5.78;;;;;;;6.16;94.56;100706.50;4970034;28;20030;-71
2023/04/22 00:30:31;;;;;;;8.10;5.22;;;;;;;6.17;94.28;100701.97;4973641;28;20479;-71
2023/04/22 00:32:56;;;;;;;7.90;5.45;;;;;;;6.17;94.33;100707.38;4983247;28;20134;-71
2023/04/22 00:35:21;;;;;;;6.68;5.13;;;;;;;6.10;94.20;100705.00;4968971;28;20047;-70
2023/04/22 00:37:47;;;;;;;5.78;4.75;;;;;;;6.07;94.30;100704.31;4969343;28;20051;-71
2023/04/22 00:40:12;;;;;;;7.93;4.68;;;;;;;6.03;94.64;100710.84;4970497;28;20023;-71
2023/04/22 00:42:38;;;;;;;26.20;5.38;;;;;;;5.95;95.41;100715.81;4968691;28;20039;-71
2023/04/22 00:45:10;;;;;;;41.65;6.28;;;;;;;5.79;95.56;100705.81;4968225;28;20038;-71
2023/04/22 00:47:35;;;;;;;12.05;5.85;;;;;;;5.83;95.71;100712.81;4969010;28;20049;-71
2023/04/22 00:50:02;;;;;;;7.22;5.85;;;;;;;5.83;95.65;100720.03;4968706;28;20113;-71
2023/04/22 00:52:27;;;;;;;5.97;5.35;;;;;;;5.82;94.81;100712.84;4972958;28;20022;-71
2023/04/22 00:54:53;;;;;;;8.52;5.72;;;;;;;5.87;94.87;100718.88;4969563;28;20039;-71
2023/04/22 00:57:19;;;;;;;8.90;6.40;;;;;;;5.85;94.40;100710.00;4968367;28;20085;-71
2023/04/22 00:59:45;;;;;;;6.75;4.90;;;;;;;5.88;94.63;100717.94;4966510;28;20148;-71
2023/04/22 01:02:11;;;;;;;7.95;6.43;;;;;;;5.87;94.93;100717.06;4969119;28;20436;-72
2023/04/22 01:04:36;;;;;;;7.32;5.47;;;;;;;5.84;95.16;100713.66;4969331;28;20101;-71
2023/04/22 01:07:02;;;;;;;7.55;5.75;;;;;;;5.81;96.08;100706.59;4981811;28;20509;-71
2023/04/22 01:09:28;;;;;;;6.68;5.38;;;;;;;5.76;96.97;100697.88;4987533;28;20042;-71
2023/04/22 01:11:53;;;;;;;8.45;5.75;;;;;;;5.79;97.31;100711.22;4986472;28;20045;-71
2023/04/22 01:14:19;;;;;;;7.32;5.72;;;;;;;5.79;96.59;100707.66;4988676;28;20392;-71
2023/04/22 01:16:45;;;;;;;7.53;5.50;;;;;;;5.84;95.96;100709.13;4970645;28;20395;-71
2023/04/22 01:19:10;;;;;;;8.13;5.82;;;;;;;5.89;96.05;100703.47;4969654;28;20515;-71
2023/04/22 01:21:38;;;;;;;7.93;5.70;;;;;;;5.92;96.41;100691.66;4967375;28;20027;-71
2023/04/22 01:24:03;;;;;;;7.28;5.40;;;;;;;5.96;96.59;100694.09;4969003;28;20923;-72
2023/04/22 01:26:29;;;;;;;8.05;5.70;;;;;;;6.01;95.77;100691.16;4968916;28;20177;-71
2023/04/22 01:28:55;;;;;;;7.75;6.10;;;;;;;6.04;96.72;100690.97;4980420;28;20384;-71
2023/04/22 01:31:20;;;;;;;7.60;5.82;;;;;;;6.08;96.21;100697.97;4968173;28;20030;-71
2023/04/22 01:33:47;;;;;;;9.90;7.10;;;;;;;6.11;96.15;100695.09;4968859;28;20401;-71
2023/04/22 01:36:12;;;;;;;8.55;6.15;;;;;;;6.14;96.29;100690.38;4967154;28;20037;-71
2023/04/22 01:38:38;;;;;;;10.82;6.22;;;;;;;6.18;97.00;100690.22;4967100;28;20042;-71
2023/04/22 01:41:04;;;;;;;9.70;6.65;;;;;;;6.20;97.09;100697.28;4977184;28;20250;-71
2023/04/22 01:43:30;;;;;;;10.73;7.22;;;;;;;6.20;97.58;100689.19;4968913;28;20035;-71
2023/04/22 01:45:56;;;;;;;10.73;6.68;;;;;;;6.23;97.71;100688.13;4968008;28;20463;-71
2023/04/22 01:48:22;;;;;;;8.65;6.28;;;;;;;6.23;97.91;100694.38;4966991;28;20060;-71
2023/04/22 01:50:47;;;;;;;7.45;6.00;;;;;;;6.26;97.29;100690.66;4966312;28;20474;-71
2023/04/22 01:53:12;;;;;;;9.45;6.50;;;;;;;6.28;96.87;100692.28;4968827;28;20042;-71
2023/04/22 01:55:38;;;;;;;9.48;6.45;;;;;;;6.30;96.89;100687.69;4966942;28;20125;-71
2023/04/22 01:58:04;;;;;;;8.52;6.15;;;;;;;6.31;97.00;100692.13;4967378;28;20241;-71
2023/04/22 02:00:29;;;;;;;8.88;6.35;;;;;;;6.32;96.52;100682.19;4981522;28;20045;-71
2023/04/22 02:02:55;;;;;;;8.88;5.80;;;;;;;6.34;97.67;100683.84;4967215;28;20053;-71
2023/04/22 02:05:22;;;;;;;7.53;5.90;;;;;;;6.33;97.37;100689.31;4965892;28;20391;-71
2023/04/22 02:07:51;;;;;;;7.82;5.95;;;;;;;6.36;97.38;100687.31;4965609;28;20050;-71
2023/04/22 02:10:17;;;;;;;9.80;7.22;;;;;;;6.36;97.77;100684.63;4966595;28;20474;-71
2023/04/22 02:12:42;;;;;;;9.35;6.85;;;;;;;6.38;97.33;100689.94;4966528;28;20035;-71
2023/04/22 02:15:08;;;;;;;9.88;6.72;;;;;;;6.38;97.26;100684.53;4967003;28;20065;-71
2023/04/22 02:17:34;;;;;;;10.20;6.78;;;;;;;6.39;97.06;100687.16;4967717;28;20198;-71
2023/04/22 02:20:01;;;;;;;8.35;5.90;;;;;;;6.40;96.96;100690.72;4972879;28;20034;-71
2023/04/22 02:22:28;;;;;;;9.35;7.03;;;;;;;6.40;96.66;100682.63;4969604;28;20022;-71
2023/04/22 02:24:54;;;;;;;10.30;6.95;;;;;;;6.42;96.43;100683.38;4981283;28;20096;-71
2023/04/22 02:27:20;;;;;;;9.52;7.15;;;;;;;6.42;96.24;100687.94;4966712;28;20114;-71
2023/04/22 02:29:47;;;;;;;9.80;7.53;;;;;;;6.39;96.08;100664.69;4966481;28;20528;-71
2023/04/22 02:32:16;;;;;;;9.32;6.68;;;;;;;6.44;96.81;100680.63;4966335;28;20343;-71
2023/04/22 02:34:42;;;;;;;10.82;7.40;;;;;;;6.43;96.67;100668.03;4966643;28;20065;-71
2023/04/22 02:37:07;;;;;;;11.75;7.55;;;;;;;6.44;96.63;100665.28;4966791;28;20039;-71
2023/04/22 02:39:33;;;;;;;10.52;7.60;;;;;;;6.43;96.57;100659.94;4966783;28;20201;-71
2023/04/22 02:42:00;;;;;;;9.52;7.13;;;;;;;6.44;97.45;100664.41;4966164;28;20027;-71
2023/04/22 02:44:25;;;;;;;9.10;6.97;;;;;;;6.44;96.94;100664.41;4966362;28;20039;-71
2023/04/22 02:46:51;;;;;;;11.30;7.47;;;;;;;6.44;97.48;100661.72;4978668;28;20387;-71
2023/04/22 02:49:16;;;;;;;11.52;8.27;;;;;;;6.41;98.27;100662.75;4966184;28;20470;-71
2023/04/22 02:51:42;;;;;;;9.77;7.15;;;;;;;6.39;98.50;100670.94;4985989;28;20039;-70
2023/04/22 02:54:08;;;;;;;9.25;6.88;;;;;;;6.38;98.38;100657.50;4985415;28;20093;-71
2023/04/22 02:56:33;;;;;;;9.38;7.82;;;;;;;6.37;99.23;100662.03;4986692;28;20252;-71
2023/04/22 02:58:58;;;;;;;10.30;6.97;;;;;;;6.38;98.04;100658.38;4980454;28;20031;-71
2023/04/22 03:01:24;;;;;;;9.52;6.45;;;;;;;6.39;97.98;100652.03;4965893;28;20037;-71
2023/04/22 03:03:50;;;;;;;8.95;6.63;;;;;;;6.39;97.72;100649.34;4966223;28;20073;-71
2023/04/22 03:06:20;;;;;;;9.82;6.85;;;;;;;6.41;97.34;100656.47;4965500;28;20026;-71
2023/04/22 03:08:46;;;;;;;9.50;7.22;;;;;;;6.44;97.77;100654.47;4965767;28;20046;-71
2023/04/22 03:11:12;;;;;;;10.13;7.85;;;;;;;6.45;97.48;100652.63;4966387;28;20110;-71
2023/04/22 03:13:38;;;;;;;9.25;6.90;;;;;;;6.46;97.55;100643.56;4966305;28;20118;-71
2023/04/22 03:16:04;;;;;;;9.68;7.03;;;;;;;6.46;97.29;100649.84;4965551;28;20242;-71
2023/04/22 03:18:31;;;;;;;10.15;7.00;;;;;;;6.45;98.83;100642.69;4965818;28;20403;-71
2023/04/22 03:20:56;;;;;;;10.55;7.47;;;;;;;6.45;98.21;100644.53;4965348;28;20042;-71
2023/04/22 03:23:21;;;;;;;12.27;7.85;;;;;;;6.45;98.92;100639.13;4965204;28;20035;-71
2023/04/22 03:25:47;;;;;;;9.82;7.85;;;;;;;6.44;98.32;100649.06;4968722;28;20042;-71
2023/04/22 03:28:12;;;;;;;9.20;6.72;;;;;;;6.46;97.81;100640.84;4970480;28;20035;-71
2023/04/22 03:30:39;;;;;;;11.13;7.05;;;;;;;6.44;98.17;100637.38;4969343;28;20411;-71
2023/04/22 03:33:04;;;;;;;10.82;7.95;;;;;;;6.43;97.84;100632.91;4970776;28;20039;-71
2023/04/22 03:35:37;;;;;;;10.05;7.45;;;;;;;6.43;97.85;100630.22;4968784;28;20466;-71
2023/04/22 03:38:03;;;;;;;10.68;6.80;;;;;;;6.39;98.02;100629.56;4985427;28;20243;-71
2023/04/22 03:40:31;;;;;;;10.15;7.35;;;;;;;6.42;97.68;100631.19;4988090;28;20033;-71
2023/04/22 03:42:58;;;;;;;9.35;7.30;;;;;;;6.38;97.91;100628.66;4972958;28;20034;-71
2023/04/22 03:45:24;;;;;;;7.72;6.32;;;;;;;6.40;98.34;100625.88;4988893;28;20034;-71
2023/04/22 03:48:07;;;;;;;7.88;6.32;;;;;;;6.42;97.79;100631.19;4986894;28;20049;-71
2023/04/22 03:50:39;;;;;;;9.57;6.43;;;;;;;6.39;97.17;100614.22;4988246;28;20034;-71
2023/04/22 03:53:04;;;;;;;9.93;7.03;;;;;;;6.42;97.40;100614.97;4988244;28;20104;-71
2023/04/22 03:55:29;;;;;;;10.18;7.90;;;;;;;6.40;98.35;100606.97;4987708;28;20049;-71
2023/04/22 03:57:55;;;;;;;10.90;8.18;;;;;;;6.38;97.80;100609.75;4988623;28;20601;-71
2023/04/22 04:00:20;;;;;;;10.77;7.93;;;;;;;6.37;98.55;100610.72;4987601;28;20102;-71
2023/04/22 04:02:54;;;;;;;8.60;6.75;;;;;;;6.37;98.38;100609.84;4986554;28;20030;-71
2023/04/22 04:05:24;;;;;;;9.93;7.55;;;;;;;6.35;98.29;100611.78;4986751;28;20030;-71
2023/04/22 04:07:49;;;;;;;11.20;7.93;;;;;;;6.34;98.70;100602.81;4987851;28;20048;-71
2023/04/22 04:10:15;;;;;;;11.10;7.70;;;;;;;6.31;98.96;100596.69;4988430;28;20041;-71
2023/04/22 04:12:40;;;;;;;12.25;8.45;;;;;;;6.31;98.44;100600.28;4982811;28;20019;-71
2023/04/22 04:15:06;;;;;;;14.52;7.97;;;;;;;6.32;98.55;100603.84;4968911;28;20499;-72
2023/04/22 04:17:32;;;;;;;9.82;7.53;;;;;;;6.32;98.91;100602.00;4979684;28;20089;-71
2023/04/22 04:20:00;;;;;;;11.65;8.60;;;;;;;6.33;99.64;100600.16;4967674;28;20039;-71
2023/04/22 04:22:26;;;;;;;13.27;9.20;;;;;;;6.33;99.92;100600.16;4968239;28;20030;-71
2023/04/22 04:24:56;;;;;;;12.73;9.48;;;;;;;6.33;99.71;100601.03;4978517;28;20045;-71
2023/04/22 04:27:25;;;;;;;12.35;7.78;;;;;;;6.33;98.89;100597.47;4968766;28;20439;-71
2023/04/22 04:29:54;;;;;;;14.18;8.00;;;;;;;6.34;98.65;100599.19;4968150;28;20051;-71
2023/04/22 04:32:33;;;;;;;13.77;9.32;;;;;;;6.32;100.00;100579.53;4968429;28;20031;-71
2023/04/22 04:35:01;;;;;;;13.25;9.40;;;;;;;6.32;100.00;100582.22;4967720;28;20043;-71
2023/04/22 04:37:26;;;;;;;11.43;8.55;;;;;;;6.31;99.80;100591.28;4967064;28;20085;-71
2023/04/22 04:40:00;;;;;;;11.77;7.50;;;;;;;6.32;99.31;100590.34;4968090;28;20118;-71
2023/04/22 04:42:36;;;;;;;11.63;8.05;;;;;;;6.33;99.26;100595.63;4968131;28;20038;-71
2023/04/22 04:45:06;;;;;;;11.75;8.35;;;;;;;6.32;99.33;100598.44;4987609;28;20482;-72
2023/04/22 04:47:32;;;;;;;11.07;8.20;;;;;;;6.32;99.04;100598.44;4969487;28;20121;-71
2023/04/22 04:50:07;;;;;;;11.35;7.95;;;;;;;6.34;99.16;100599.19;4986736;28;20453;-71
2023/04/22 04:52:33;;;;;;;10.85;8.15;;;;;;;6.35;98.87;100592.88;4986979;28;20510;-71
2023/04/22 04:54:58;;;;;;;11.75;8.00;;;;;;;6.38;98.95;100598.06;4988004;28;20422;-71
2023/04/22 04:57:24;;;;;;;10.43;8.23;;;;;;;6.39;98.89;100600.69;4967893;28;20046;-71
2023/04/22 04:59:50;;;;;;;11.75;7.93;;;;;;;6.44;99.30;100597.72;4967815;28;20534;-71
2023/04/22 05:02:16;;;;;;;11.20;7.50;;;;;;;6.47;99.10;100593.94;4979799;28;20136;-71
2023/04/22 05:04:41;;;;;;;9.32;7.30;;;;;;;6.52;98.88;100603.50;4987467;28;20125;-72
2023/04/22 05:07:07;;;;;;;9.50;7.78;;;;;;;6.54;98.37;100595.34;4968533;28;20066;-71
2023/04/22 05:09:36;;;;;;;10.27;7.97;;;;;;;6.56;97.95;100607.78;4967938;28;20036;-71
2023/04/22 05:12:03;;;;;;;10.07;7.20;;;;;;;6.55;98.28;100594.38;4980658;28;20068;-72
2023/04/22 05:14:29;;;;;;;13.43;8.27;;;;;;;6.63;98.39;100603.75;4987339;28;20061;-71
2023/04/22 05:16:55;;;;;;;10.43;7.93;;;;;;;6.67;99.04;100592.75;4977019;28;20064;-71
2023/04/22 05:19:21;;;;;;;12.85;8.52;;;;;;;6.68;98.41;100595.38;4987129;28;20057;-71
2023/04/22 05:21:47;;;;;;;12.30;9.10;;;;;;;6.71;99.49;100583.50;4984735;28;20022;-71
2023/04/22 05:24:14;;;;;;;12.40;8.82;;;;;;;6.71;100.00;100581.66;4987488;28;20045;-71
2023/04/22 05:26:39;;;;;;;14.95;8.73;;;;;;;6.73;100.00;100595.09;4967429;28;20023;-71
2023/04/22 05:29:11;;;;;;;11.43;8.90;;;;;;;6.76;99.93;100589.50;4972584;28;20167;-71
2023/04/22 05:31:37;;;;;;;10.35;8.40;;;;;;;6.82;99.46;100597.25;4971503;28;20027;-71
2023/04/22 05:34:03;;;;;;;12.55;9.90;;;;;;;6.89;100.00;100599.47;4982972;28;20254;-71
2023/04/22 05:36:28;;;;;;;12.98;9.40;;;;;;;6.99;100.00;100598.91;4969166;28;20122;-71
2023/04/22 05:38:54;;;;;;;14.38;10.27;;;;;;;7.03;100.00;100592.34;4983028;28;20042;-72
2023/04/22 05:41:19;;;;;;;15.15;9.90;;;;;;;7.11;100.00;100588.19;4986317;28;20015;-71
2023/04/22 05:43:45;;;;;;;12.90;9.60;;;;;;;7.14;100.00;100585.31;4985395;28;20117;-72
2023/04/22 05:46:14;;;;;;;14.10;9.70;;;;;;;7.25;100.00;100591.88;4968002;28;20502;-71
2023/04/22 05:48:41;;;;;;;14.30;9.93;;;;;;;7.27;100.00;100579.97;4967003;28;20054;-71
2023/04/22 05:51:15;;;;;;;15.57;11.35;;;;;;;7.44;100.00;100591.59;4978036;28;20114;-71
2023/04/22 05:53:41;;;;;;;13.95;10.23;;;;;;;7.54;100.00;100584.63;4986568;28;20116;-71
2023/04/22 05:56:06;;;;;;;13.60;9.90;;;;;;;7.56;100.00;100586.28;4970621;28;20517;-71
2023/04/22 05:58:32;;;;;;;12.45;9.38;;;;;;;7.63;100.00;100586.72;4968623;28;20034;-71
2023/04/22 06:01:08;;;;;;;13.15;10.23;;;;;;;7.71;100.00;100581.69;4981965;28;20122;-71
2023/04/22 06:03:53;;;;;;;13.95;10.05;;;;;;;7.83;100.00;100580.91;4974397;28;20045;-71
2023/04/22 06:06:19;;;;;;;16.42;11.52;;;;;;;7.95;100.00;100568.38;4984021;28;20118;-71
2023/04/22 06:08:46;;;;;;;16.42;11.18;;;;;;;8.21;100.00;100571.19;4982767;28;20034;-72
2023/04/22 06:11:11;;;;;;;14.55;11.50;;;;;;;8.56;99.96;100583.28;4968181;28;20415;-71
2023/04/22 06:13:36;;;;;;;14.63;11.43;;;;;;;8.91;98.00;100575.41;4973068;28;20112;-71
2023/04/22 06:16:03;;;;;;;13.77;10.48;;;;;;;9.14;97.04;100573.81;4965766;28;22036;-71
2023/04/22 06:18:31;;;;;;;14.88;10.73;;;;;;;9.27;96.89;100573.78;4975662;28;20031;-71
2023/04/22 06:20:56;;;;;;;16.85;11.55;;;;;;;9.53;97.52;100579.19;4979783;28;20128;-71
2023/04/22 06:23:22;;;;;;;16.42;12.10;;;;;;;9.73;96.87;100567.72;4981235;28;20581;-71
2023/04/22 06:25:47;;;;;;;17.20;11.70;;;;;;;9.91;97.09;100571.81;4965953;28;20070;-72
2023/04/22 06:28:13;;;;;;;17.98;12.30;;;;;;;10.04;95.98;100565.47;4980763;28;20382;-71
2023/04/22 06:30:39;;;;;;;17.65;12.27;;;;;;;10.23;95.27;100560.38;4963449;28;20074;-72
2023/04/22 06:33:05;;;;;;;15.90;13.00;;;;;;;10.29;96.25;100568.09;4965741;28;20035;-71
2023/04/22 06:35:30;;;;;;;18.65;13.13;;;;;;;10.36;96.18;100565.81;4965293;28;20035;-71
2023/04/22 06:37:56;;;;;;;15.77;12.18;;;;;;;10.45;95.81;100571.41;4965403;28;20034;-72
2023/04/22 06:40:25;;;;;;;15.75;11.27;;;;;;;10.76;95.04;100571.75;4966168;28;20117;-72
2023/04/22 06:43:17;;;;;;;14.48;11.20;;;;;;;11.03;94.07;100559.69;4966882;28;20061;-72
2023/04/22 06:46:17;;;;;;;15.70;11.38;;;;;;;11.33;94.02;100562.72;4980201;28;20632;-72
2023/04/22 06:48:51;;;;;;;13.88;10.70;;;;;;;11.29;93.47;100560.34;4970091;28;20070;-71
2023/04/22 06:51:39;;;;;;;14.77;11.00;;;;;;;11.28;92.79;100548.56;4966692;28;20186;-72
2023/04/22 06:54:05;;;;;;;14.40;11.02;;;;;;;11.33;92.18;100550.94;4965846;28;20542;-72
2023/04/22 06:56:31;;;;;;;15.77;11.55;;;;;;;11.55;92.12;100545.47;4964192;28;20044;-72
2023/04/22 06:58:56;;;;;;;16.50;12.90;;;;;;;11.63;91.19;100550.31;4980810;28;20063;-72
2023/04/22 07:01:22;;;;;;;17.88;12.02;;;;;;;11.69;91.88;100560.72;4969328;28;20062;-72
2023/04/22 07:03:47;;;;;;;17.33;12.65;;;;;;;11.93;92.55;100561.44;4969842;28;20034;-72
2023/04/22 07:06:14;;;;;;;18.95;12.65;;;;;;;12.17;90.62;100561.28;4969724;28;20526;-72
2023/04/22 07:08:39;;;;;;;16.98;12.85;;;;;;;12.30;89.84;100554.78;4969484;28;20588;-72
2023/04/22 07:11:05;;;;;;;17.58;12.23;;;;;;;12.36;88.95;100552.41;4969920;28;20121;-72
2023/04/22 07:13:37;;;;;;;19.20;11.93;;;;;;;12.63;88.63;100553.78;4971780;28;20031;-72
2023/04/22 07:16:03;;;;;;;14.80;11.70;;;;;;;12.74;87.95;100542.81;4970168;28;20298;-72
2023/04/22 07:18:28;;;;;;;16.10;11.48;;;;;;;12.59;87.14;100541.38;4970832;28;20598;-72
2023/04/22 07:20:54;;;;;;;15.52;11.45;;;;;;;12.42;87.97;100542.84;4969999;28;20136;-71
2023/04/22 07:23:20;;;;;;;14.43;11.48;;;;;;;12.31;89.44;100541.03;4968558;28;20038;-72
2023/04/22 07:25:46;;;;;;;15.43;11.45;;;;;;;12.29;89.77;100544.88;4970023;28;20410;-72
2023/04/22 07:28:11;;;;;;;16.35;11.25;;;;;;;12.42;90.04;100535.50;4969465;28;20042;-72
2023/04/22 07:30:36;;;;;;;15.50;10.98;;;;;;;12.53;88.99;100548.22;4982715;28;20061;-72
2023/04/22 07:33:02;;;;;;;15.13;11.07;;;;;;;12.64;89.54;100556.38;4971140;28;20032;-72
2023/04/22 07:35:28;;;;;;;17.23;11.38;;;;;;;12.62;88.42;100544.72;4977091;28;20038;-71
2023/04/22 07:37:54;;;;;;;16.10;10.65;;;;;;;12.57;89.05;100536.06;4988831;28;20458;-72
2023/04/22 07:40:20;;;;;;;15.02;10.88;;;;;;;12.70;88.82;100553.13;4985760;28;20045;-71
2023/04/22 07:42:45;;;;;;;16.52;12.20;;;;;;;12.87;88.86;100542.59;4988001;28;20176;-72
2023/04/22 07:45:11;;;;;;;20.67;12.07;;;;;;;13.01;88.43;100542.28;4989323;28;20034;-72
2023/04/22 07:47:36;;;;;;;16.80;12.32;;;;;;;13.23;89.43;100544.84;4973287;28;20041;-72
2023/04/22 07:50:02;;;;;;;16.70;12.02;;;;;;;13.65;87.83;100549.38;4969453;28;20493;-72
2023/04/22 07:52:28;;;;;;;14.10;10.23;;;;;;;13.89;84.77;100551.75;4969608;28;20458;-72
2023/04/22 07:54:54;;;;;;;13.10;9.80;;;;;;;13.97;83.80;100538.25;4969155;28;20062;-72
2023/04/22 07:57:21;;;;;;;14.85;10.63;;;;;;;13.87;83.81;100527.28;4984126;28;20061;-72
2023/04/22 07:59:50;;;;;;;14.32;11.20;;;;;;;13.93;84.53;100525.84;4976730;28;20038;-72
2023/04/22 08:02:15;;;;;;;16.75;11.23;;;;;;;14.05;85.02;100522.00;4969463;28;20046;-72
2023/04/22 08:04:40;;;;;;;16.38;11.68;;;;;;;14.02;84.39;100519.53;4970303;28;20047;-71
2023/04/22 08:07:06;;;;;;;16.17;10.75;;;;;;;14.09;83.53;100520.72;4969046;28;20046;-72
2023/04/22 08:09:31;;;;;;;14.52;10.68;;;;;;;14.11;84.07;100512.34;4985110;28;20038;-72
2023/04/22 08:11:57;;;;;;;13.77;11.48;;;;;;;14.32;84.27;100510.38;4984399;28;20092;-71
2023/04/22 08:14:22;;;;;;;15.88;12.25;;;;;;;14.54;82.91;100507.34;4983732;28;20236;-71
2023/04/22 08:16:50;;;;;;;15.85;11.23;;;;;;;14.85;83.37;100506.31;4969456;28;20394;-72
2023/04/22 08:19:15;;;;;;;13.65;10.38;;;;;;;15.01;81.33;100501.97;4968682;28;20070;-72
2023/04/22 08:21:41;;;;;;;14.95;10.75;;;;;;;15.24;81.96;100507.91;4968928;28;20102;-72
2023/04/22 08:24:07;;;;;;;13.88;10.73;;;;;;;15.43;79.74;100501.50;4969716;28;20045;-72
2023/04/22 08:26:32;;;;;;;16.50;10.73;;;;;;;15.46;78.89;100506.69;4969082;28;20142;-72
2023/04/22 08:28:57;;;;;;;14.43;10.63;;;;;;;15.44;78.51;100508.72;4969703;28;20077;-72
2023/04/22 08:31:23;;;;;;;15.48;10.60;;;;;;;15.55;81.28;100500.28;4968898;28;20035;-72
2023/04/22 08:33:49;;;;;;;12.38;10.27;;;;;;;15.67;78.70;100497.41;4969689;28;20064;-72
2023/04/22 08:36:15;;;;;;;13.02;10.15;;;;;;;15.66;78.29;100502.00;4968709;28;20051;-72
2023/04/22 08:38:40;;;;;;;14.80;10.35;;;;;;;15.61;76.92;100503.44;4969559;28;20454;-72
2023/04/22 08:41:06;;;;;;;12.95;9.13;;;;;;;15.70;75.95;100502.56;4969532;28;20510;-72
2023/04/22 08:43:32;;;;;;;11.82;9.88;;;;;;;15.63;78.80;100488.56;4969151;28;20066;-72
2023/04/22 08:45:57;;;;;;;13.10;10.43;;;;;;;15.59;75.36;100478.06;4969030;28;20038;-72
2023/04/22 08:48:24;;;;;;;14.07;10.02;;;;;;;15.51;77.41;100467.84;4969298;28;20113;-72
2023/04/22 08:50:50;;;;;;;13.73;10.20;;;;;;;15.81;78.98;100463.97;4967339;28;20801;-72
2023/04/22 08:53:16;;;;;;;13.50;9.95;;;;;;;16.22;78.59;100454.25;4967646;28;20035;-71
2023/04/22 08:55:44;;;;;;;13.02;9.23;;;;;;;16.48;75.49;100456.22;4969807;28;20551;-71
2023/04/22 08:58:11;;;;;;;13.45;9.40;;;;;;;16.52;77.08;100454.88;4970567;28;20066;-71
2023/04/22 09:00:38;;;;;;;12.40;7.97;;;;;;;16.61;71.31;100455.81;4995071;28;20098;-72
2023/04/22 09:03:05;;;;;;;12.18;8.70;;;;;;;17.08;75.76;100450.84;4968970;28;20242;-72
2023/04/22 09:05:36;;;;;;;12.35;8.77;;;;;;;17.39;74.47;100451.13;4968450;28;20044;-72
2023/04/22 09:08:02;;;;;;;13.32;8.02;;;;;;;17.63;74.09;100453.16;4967134;28;20031;-72
2023/04/22 09:10:29;;;;;;;13.43;8.57;;;;;;;17.88;70.21;100448.59;4969136;28;20105;-72
2023/04/22 09:12:55;;;;;;;11.50;8.18;;;;;;;17.91;69.04;100448.28;4969375;28;20112;-72
2023/04/22 09:15:21;;;;;;;14.13;9.02;;;;;;;17.97;72.46;100449.50;4969208;28;20420;-72
2023/04/22 09:17:46;;;;;;;11.98;7.90;;;;;;;18.14;68.70;100447.59;4968790;28;20026;-72
2023/04/22 09:20:13;;;;;;;12.05;7.68;;;;;;;18.33;71.78;100444.56;4968980;28;20047;-72
2023/04/22 09:22:42;;;;;;;10.32;7.72;;;;;;;18.67;70.90;100449.88;4967461;28;20031;-73
2023/04/22 09:25:18;;;;;;;7.30;6.13;;;;;;;18.77;68.77;100442.31;4968452;28;20387;-72
2023/04/22 09:27:49;;;;;;;9.38;6.45;;;;;;;18.97;66.21;100444.69;4969070;28;20043;-72
2023/04/22 09:30:17;;;;;;;9.40;6.50;;;;;;;19.09;67.91;100446.06;4968335;28;20113;-73
2023/04/22 09:32:50;;;;;;;8.90;6.95;;;;;;;19.22;65.56;100431.72;4968916;28;20295;-73
2023/04/22 09:35:24;;;;;;;7.78;6.25;;;;;;;19.46;66.68;100436.28;4968092;28;20471;-73
2023/04/22 09:37:53;;;;;;;9.40;6.15;;;;;;;19.47;64.21;100429.72;4967211;28;20129;-72
2023/04/22 09:40:19;;;;;;;8.05;6.80;;;;;;;19.70;65.04;100432.56;4968728;28;20042;-72
2023/04/22 09:42:55;;;;;;;9.73;6.35;;;;;;;19.98;61.77;100422.75;4969012;28;20035;-72
2023/04/22 09:45:47;;;;;;;7.88;6.55;;;;;;;19.79;63.24;100437.88;4968812;28;20045;-72
2023/04/22 09:48:22;;;;;;;8.10;6.40;;;;;;;19.86;64.94;100438.00;4967840;28;20112;-71
2023/04/22 09:50:49;;;;;;;8.23;6.35;;;;;;;20.09;62.30;100446.31;4967330;28;20035;-73
2023/04/22 09:53:20;;;;;;;8.52;6.68;;;;;;;20.12;62.29;100446.81;4967832;28;20069;-71
2023/04/22 09:55:53;;;;;;;9.70;6.43;;;;;;;20.31;62.41;100441.84;4968289;28;20418;-72
2023/04/22 09:58:19;;;;;;;7.80;5.75;;;;;;;;;;4968669;28;20030;-72
2023/04/22 10:01:03;;;;;;;8.27;5.97;;;;;;;20.68;62.61;100432.75;4966998;28;20051;-73
2023/04/22 10:03:28;;;;;;;8.82;6.18;;;;;;;20.78;59.07;100430.56;4984882;28;20034;-71
2023/04/22 10:05:54;;;;;;;11.52;6.40;;;;;;;20.71;56.33;100423.25;4986755;28;20038;-72
2023/04/22 10:08:19;;;;;;;8.07;6.65;;;;;;;20.77;60.09;100428.00;4987580;28;20502;-72
2023/04/22 10:10:45;;;;;;;7.90;6.25;;;;;;;20.97;60.34;100436.63;4968049;28;20065;-72
2023/04/22 10:13:11;;;;;;;9.07;6.03;;;;;;;21.06;60.93;100430.81;4968595;28;20027;-72
2023/04/22 10:15:54;;;;;;;8.30;6.00;;;;;;;21.36;62.08;100425.31;4983122;28;20042;-72
2023/04/22 10:18:27;;;;;;;8.40;6.20;;;;;;;21.48;58.88;100432.06;4968018;28;20551;-73
2023/04/22 10:20:55;;;;;;;8.50;5.80;;;;;;;21.61;57.08;100445.25;4967254;28;20105;-73
2023/04/22 10:23:22;;;;;;;8.70;6.28;;;;;;;21.59;54.35;100458.41;4967780;28;20062;-72
2023/04/22 10:25:57;;;;;;;9.52;7.72;;;;;;;21.46;56.54;100439.72;4981028;28;20502;-73
2023/04/22 10:28:26;;;;;;;11.80;7.07;;;;;;;21.15;56.30;100443.50;4968306;28;20065;-72
2023/04/22 10:30:52;;;;;;;9.85;6.78;;;;;;;21.07;56.60;100438.03;4968061;28;20419;-73
2023/04/22 10:33:22;;;;;;;9.05;6.65;;;;;;;21.02;54.30;100442.44;4966771;28;20049;-73
2023/04/22 10:36:13;;;;;;;9.00;6.70;;;;;;;21.15;56.79;100435.19;4967086;28;20161;-73
2023/04/22 10:38:54;;;;;;;7.65;6.03;;;;;;;21.38;57.37;100439.81;4950619;28;20051;-72
2023/04/22 10:41:29;;;;;;;9.25;6.40;;;;;;;21.53;54.60;100434.25;4972627;28;20376;-72
2023/04/22 10:44:00;;;;;;;6.65;5.93;;;;;;;21.38;52.97;100423.22;4981113;28;20108;-72
2023/04/22 10:46:38;;;;;;;10.20;6.32;;;;;;;21.23;56.79;100416.81;4981559;28;20034;-72
2023/04/22 10:49:08;;;;;;;12.85;6.00;;;;;;;21.13;54.75;100419.84;4967947;28;20538;-71
2023/04/22 10:51:48;;;;;;;9.25;5.90;;;;;;;20.85;56.18;100425.16;4964861;28;20242;-71
2023/04/22 10:54:30;;;;;;;9.63;5.82;;;;;;;20.60;56.90;100425.38;4971304;28;20495;-73
2023/04/22 10:57:08;;;;;;;5.85;4.70;;;;;;;20.31;55.72;100434.41;4973030;28;20038;-71
2023/04/22 10:59:41;;;;;;;6.55;4.82;;;;;;;19.91;55.99;100441.09;4970684;28;20051;-71
2023/04/22 11:02:08;;;;;;;8.70;5.10;;;;;;;19.33;55.89;100443.22;4973317;28;20034;-72
2023/04/22 11:04:34;;;;;;;5.68;4.55;;;;;;;19.04;59.31;100451.25;4985694;28;20509;-72
2023/04/22 11:07:30;;;;;;;6.85;4.40;;;;;;;18.76;61.15;100453.53;4985467;28;20405;-72
2023/04/22 11:10:02;;;;;;;7.97;4.65;;;;;;;18.51;60.08;100442.50;4987045;28;20042;-71
2023/04/22 11:12:40;;;;;;;8.20;5.03;;;;;;;18.27;61.32;100456.25;4972295;28;20047;-72
2023/04/22 11:15:06;;;;;;;8.43;4.95;;;;;;;17.98;61.63;100454.81;4967318;28;20309;-72
2023/04/22 11:17:33;;;;;;;10.13;5.35;;;;;;;17.69;63.41;100460.72;4967109;28;20035;-72
2023/04/22 11:19:59;;;;;;;8.98;5.50;;;;;;;17.49;66.57;100453.78;4965565;28;20443;-72
2023/04/22 11:22:25;;;;;;;9.18;5.55;;;;;;;17.40;69.70;100444.63;4967111;28;20039;-72
2023/04/22 11:24:59;;;;;;;8.43;5.60;;;;;;;17.29;68.52;100444.91;4966503;28;20111;-72
2023/04/22 11:27:25;;;;;;;8.93;5.50;;;;;;;17.27;68.80;100445.09;4967858;28;20057;-72